Terminal Aerodrome Forecast
Issued by NWS

Home | Current Version | Previous Version | Text Only | Print | Product List | Glossary On
Versions: 1 2 3 4 5 6 7 8 9 10 11 12 13 14 15 16 17
417
FTUS43 KLSX 270520
TAFCPS
TAF
KCPS 270520Z 2706/2806 28014G20KT 5SM -RA OVC008
      TEMPO 2706/2708 2SM RA BR
     FM270800 29011G19KT P6SM OVC008
     FM271400 28010KT P6SM BKN020
     FM271600 27011KT P6SM SCT050
     FM272300 VRB04KT P6SM SCT130=

USA.gov is the U.S. government's official web portal to all federal, state and local government web resources and services.